createdAt,value
2023-02-19T00:00:05.127Z,967.71
2023-02-19T00:01:05.089Z,967.63
2023-02-19T00:02:08.162Z,967.62
2023-02-19T00:03:05.072Z,967.65
2023-02-19T00:04:05.055Z,967.66
2023-02-19T00:05:05.114Z,967.62
2023-02-19T00:06:05.031Z,967.59
2023-02-19T00:07:05.023Z,967.62
2023-02-19T00:08:05.008Z,967.52
2023-02-19T00:09:05.023Z,967.61
2023-02-19T00:10:05.037Z,967.62
2023-02-19T00:11:04.986Z,967.61
2023-02-19T00:12:04.989Z,967.64
2023-02-19T00:13:04.947Z,967.59
2023-02-19T00:14:04.970Z,967.61
2023-02-19T00:15:04.938Z,967.61
2023-02-19T00:16:05.077Z,967.55
2023-02-19T00:17:07.930Z,967.58
2023-02-19T00:18:04.941Z,967.61
2023-02-19T00:19:04.924Z,967.61
2023-02-19T00:20:04.926Z,967.58
2023-02-19T00:21:04.879Z,967.62
2023-02-19T00:22:04.921Z,967.63
2023-02-19T00:23:04.871Z,967.63
2023-02-19T00:24:04.842Z,967.61
2023-02-19T00:25:04.860Z,967.57
2023-02-19T00:26:17.137Z,967.60
2023-02-19T00:27:04.847Z,967.56
2023-02-19T00:28:04.831Z,967.57
2023-02-19T00:29:04.859Z,967.58
2023-02-19T00:30:04.849Z,967.57
2023-02-19T00:31:04.825Z,967.56
2023-02-19T00:32:07.828Z,967.59
2023-02-19T00:33:04.822Z,967.57
2023-02-19T00:34:04.970Z,967.53
2023-02-19T00:35:04.728Z,967.57
2023-02-19T00:36:04.808Z,967.52
2023-02-19T00:37:04.843Z,967.50
2023-02-19T00:38:04.728Z,967.51
2023-02-19T00:39:04.832Z,967.49
2023-02-19T00:40:04.897Z,967.47
2023-02-19T00:41:04.879Z,967.49
2023-02-19T00:42:04.728Z,967.42
2023-02-19T00:43:04.638Z,967.48
2023-02-19T00:44:04.801Z,967.45
2023-02-19T00:45:04.657Z,967.48
2023-02-19T00:46:04.685Z,967.46
2023-02-19T00:47:07.628Z,967.45
2023-02-19T00:48:04.610Z,967.48
2023-02-19T00:49:04.591Z,967.44
2023-02-19T00:50:04.583Z,967.44
2023-02-19T00:51:04.579Z,967.42
2023-02-19T00:52:04.691Z,967.41
2023-02-19T00:53:04.579Z,967.40
2023-02-19T00:54:04.560Z,967.41
2023-02-19T00:55:04.562Z,967.48
2023-02-19T00:56:04.520Z,967.41
2023-02-19T00:57:04.513Z,967.41
2023-02-19T00:58:04.521Z,967.41
2023-02-19T00:59:04.516Z,967.43
2023-02-19T01:00:04.503Z,967.42
2023-02-19T01:01:04.464Z,967.43
2023-02-19T01:02:07.450Z,967.42
2023-02-19T01:03:04.484Z,967.43
2023-02-19T01:04:06.573Z,967.49
2023-02-19T01:05:04.421Z,967.50
2023-02-19T01:06:04.441Z,967.44
2023-02-19T01:07:04.541Z,967.40
2023-02-19T01:08:04.399Z,967.41
2023-02-19T01:09:04.460Z,967.40
2023-02-19T01:10:04.392Z,967.42
2023-02-19T01:11:04.361Z,967.39
2023-02-19T01:12:04.405Z,967.44
2023-02-19T01:13:04.360Z,967.45
2023-02-19T01:14:04.449Z,967.40
2023-02-19T01:15:04.322Z,967.33
2023-02-19T01:16:04.354Z,967.31
2023-02-19T01:17:07.300Z,967.37
2023-02-19T01:18:04.292Z,967.37
2023-02-19T01:19:04.310Z,967.33
2023-02-19T01:20:04.283Z,967.36
2023-02-19T01:21:04.372Z,967.30
2023-02-19T01:22:04.306Z,967.38
2023-02-19T01:23:04.225Z,967.29
2023-02-19T01:24:04.226Z,967.33
2023-02-19T01:25:04.253Z,967.28
2023-02-19T01:26:04.228Z,967.30
2023-02-19T01:27:04.216Z,967.30
2023-02-19T01:28:04.215Z,967.27
2023-02-19T01:29:04.201Z,967.31
2023-02-19T01:30:04.220Z,967.22
2023-02-19T01:31:04.235Z,967.22
2023-02-19T01:32:07.256Z,967.26
2023-02-19T01:33:04.163Z,967.21
2023-02-19T01:34:04.131Z,967.25
2023-02-19T01:35:04.132Z,967.22
2023-02-19T01:36:04.124Z,967.29
2023-02-19T01:37:04.111Z,967.23
2023-02-19T01:38:04.077Z,967.22
2023-02-19T01:39:04.136Z,967.27
2023-02-19T01:40:04.074Z,967.31
2023-02-19T01:41:04.054Z,967.30
2023-02-19T01:42:04.063Z,967.32
2023-02-19T01:43:04.026Z,967.29
2023-02-19T01:44:04.071Z,967.28
2023-02-19T01:45:04.006Z,967.30
2023-02-19T01:46:04.016Z,967.28
2023-02-19T01:47:07.011Z,967.29
2023-02-19T01:48:04.012Z,967.28
2023-02-19T01:49:03.958Z,967.31
2023-02-19T01:50:03.983Z,967.29
2023-02-19T01:51:03.992Z,967.25
2023-02-19T01:52:03.950Z,967.26
2023-02-19T01:53:03.957Z,967.27
2023-02-19T01:54:03.943Z,967.26
2023-02-19T01:55:03.945Z,967.21
2023-02-19T01:56:03.937Z,967.26
2023-02-19T01:57:03.882Z,967.24
2023-02-19T01:58:03.867Z,967.23
2023-02-19T01:59:03.861Z,967.23
2023-02-19T02:00:03.849Z,967.19
2023-02-19T02:01:03.891Z,967.24
2023-02-19T02:02:06.898Z,967.21
2023-02-19T02:03:03.864Z,967.20
2023-02-19T02:04:03.835Z,967.25
2023-02-19T02:05:03.893Z,967.23
2023-02-19T02:06:03.788Z,967.21
2023-02-19T02:07:03.794Z,967.18
2023-02-19T02:08:03.759Z,967.15
2023-02-19T02:09:03.756Z,967.14
2023-02-19T02:10:03.774Z,967.07
2023-02-19T02:11:03.760Z,967.02
2023-02-19T02:12:03.742Z,967.01
2023-02-19T02:13:03.713Z,967.01
2023-02-19T02:14:03.707Z,966.90
2023-02-19T02:15:03.817Z,966.89
2023-02-19T02:16:03.763Z,966.89
2023-02-19T02:17:06.665Z,966.83
2023-02-19T02:18:03.757Z,966.81
2023-02-19T02:19:03.729Z,966.79
2023-02-19T02:20:03.709Z,966.78
2023-02-19T02:21:03.698Z,966.83
2023-02-19T02:22:03.674Z,966.79
2023-02-19T02:23:03.634Z,966.72
2023-02-19T02:24:03.617Z,966.72
2023-02-19T02:25:03.651Z,966.71
2023-02-19T02:26:03.698Z,966.75
2023-02-19T02:27:03.875Z,966.72
2023-02-19T02:28:03.582Z,966.72
2023-02-19T02:29:03.579Z,966.75
2023-02-19T02:30:03.593Z,966.71
2023-02-19T02:31:03.555Z,966.69
2023-02-19T02:32:06.744Z,966.70
2023-02-19T02:33:03.542Z,966.71
2023-02-19T02:34:03.540Z,966.67
2023-02-19T02:35:03.519Z,966.61
2023-02-19T02:36:03.484Z,966.62
2023-02-19T02:37:03.500Z,966.57
2023-02-19T02:38:03.489Z,966.64
2023-02-19T02:39:03.488Z,966.62
2023-02-19T02:40:03.430Z,966.58
2023-02-19T02:41:03.456Z,966.52
2023-02-19T02:42:03.412Z,966.55
2023-02-19T02:43:03.445Z,966.51
2023-02-19T02:44:03.398Z,966.48
2023-02-19T02:45:03.385Z,966.47
2023-02-19T02:46:03.466Z,966.45
2023-02-19T02:47:06.396Z,966.46
2023-02-19T02:48:03.391Z,966.41
2023-02-19T02:49:03.342Z,966.40
2023-02-19T02:51:03.337Z,966.39
2023-02-19T02:52:03.361Z,966.40
2023-02-19T02:53:03.334Z,966.35
2023-02-19T02:54:03.340Z,966.39
2023-02-19T02:56:03.263Z,966.50
2023-02-19T02:57:03.290Z,966.50
2023-02-19T02:58:03.246Z,966.55
2023-02-19T02:59:03.232Z,966.56
2023-02-19T03:00:03.254Z,966.56
2023-02-19T03:01:03.264Z,966.59
2023-02-19T03:02:06.323Z,966.63
2023-02-19T03:03:03.211Z,966.59
2023-02-19T03:04:03.214Z,966.59
2023-02-19T03:05:03.247Z,966.61
2023-02-19T03:06:03.193Z,966.58
2023-02-19T03:07:03.146Z,966.63
2023-02-19T03:08:03.158Z,966.64
2023-02-19T03:09:03.136Z,966.60
2023-02-19T03:10:03.145Z,966.57
2023-02-19T03:11:03.138Z,966.59
2023-02-19T03:12:03.156Z,966.56
2023-02-19T03:13:03.098Z,966.60
2023-02-19T03:14:03.106Z,966.57
2023-02-19T03:15:03.098Z,966.61
2023-02-19T03:16:03.097Z,966.66
2023-02-19T03:17:06.082Z,966.65
2023-02-19T03:18:03.082Z,966.63
2023-02-19T03:19:03.057Z,966.59
2023-02-19T03:20:03.016Z,966.60
2023-02-19T03:21:03.012Z,966.60
2023-02-19T03:22:03.022Z,966.61
2023-02-19T03:23:03.019Z,966.59
2023-02-19T03:24:03.019Z,966.59
2023-02-19T03:25:02.997Z,966.64
2023-02-19T03:26:02.992Z,966.64
2023-02-19T03:27:02.944Z,966.63
2023-02-19T03:28:02.969Z,966.68
2023-02-19T03:29:02.954Z,966.68
2023-02-19T03:30:02.982Z,966.70
2023-02-19T03:31:02.955Z,966.72
2023-02-19T03:32:05.934Z,966.78
2023-02-19T03:33:02.922Z,966.79
2023-02-19T03:34:02.913Z,966.79
2023-02-19T03:35:02.920Z,966.73
2023-02-19T03:36:02.877Z,966.74
2023-02-19T03:37:02.848Z,966.67
2023-02-19T03:38:02.860Z,966.66
2023-02-19T03:39:02.864Z,966.66
2023-02-19T03:40:02.815Z,966.66
2023-02-19T03:41:02.815Z,966.62
2023-02-19T03:42:02.829Z,966.57
2023-02-19T03:43:02.795Z,966.56
2023-02-19T03:44:02.766Z,966.59
2023-02-19T03:45:02.789Z,966.58
2023-02-19T03:46:07.925Z,966.55
2023-02-19T03:47:05.809Z,966.53
2023-02-19T03:48:02.775Z,966.54
2023-02-19T03:49:02.709Z,966.50
2023-02-19T03:50:02.709Z,966.50
2023-02-19T03:51:02.752Z,966.58
2023-02-19T03:52:02.687Z,966.59
2023-02-19T03:53:02.710Z,966.62
2023-02-19T03:54:02.663Z,966.69
2023-02-19T03:55:02.651Z,966.76
2023-02-19T03:56:02.734Z,966.92
2023-02-19T03:57:02.635Z,966.96
2023-02-19T03:58:02.646Z,967.04
2023-02-19T03:59:02.645Z,967.11
2023-02-19T04:00:02.626Z,967.17
2023-02-19T04:01:02.605Z,967.14
2023-02-19T04:02:05.683Z,967.20
2023-02-19T04:03:02.626Z,967.18
2023-02-19T04:04:02.566Z,967.15
2023-02-19T04:05:02.575Z,967.10
2023-02-19T04:06:02.546Z,967.10
2023-02-19T04:07:02.586Z,967.10
2023-02-19T04:08:02.564Z,967.10
2023-02-19T04:09:02.510Z,967.06
2023-02-19T04:10:02.528Z,967.04
2023-02-19T04:11:02.498Z,967.01
2023-02-19T04:12:02.517Z,967.03
2023-02-19T04:13:02.471Z,966.97
2023-02-19T04:14:02.457Z,966.88
2023-02-19T04:15:02.475Z,966.93
2023-02-19T04:16:02.443Z,966.79
2023-02-19T04:17:05.509Z,966.75
2023-02-19T04:18:02.438Z,966.70
2023-02-19T04:19:02.413Z,966.61
2023-02-19T04:20:02.423Z,966.61
2023-02-19T04:21:02.403Z,966.61
2023-02-19T04:22:02.400Z,966.61
2023-02-19T04:23:02.394Z,966.55
2023-02-19T04:24:02.359Z,966.53
2023-02-19T04:25:02.344Z,966.59
2023-02-19T04:26:09.397Z,966.61
2023-02-19T04:27:12.521Z,966.68
2023-02-19T04:28:02.321Z,966.68
2023-02-19T04:29:02.299Z,966.57
2023-02-19T04:30:02.339Z,966.52
2023-02-19T04:31:02.389Z,966.45
2023-02-19T04:32:05.324Z,966.44
2023-02-19T04:34:02.276Z,966.47
2023-02-19T04:35:02.247Z,966.50
2023-02-19T04:36:02.256Z,966.56
2023-02-19T04:37:02.268Z,966.64
2023-02-19T04:38:02.211Z,966.63
2023-02-19T04:39:02.219Z,966.66
2023-02-19T04:40:02.222Z,966.59
2023-02-19T04:41:02.210Z,966.53
2023-02-19T04:42:02.212Z,966.47
2023-02-19T04:43:02.196Z,966.49
2023-02-19T04:44:02.138Z,966.50
2023-02-19T04:45:02.140Z,966.53
2023-02-19T04:46:02.178Z,966.59
2023-02-19T04:47:05.136Z,966.63
2023-02-19T04:48:02.152Z,966.67
2023-02-19T04:49:02.093Z,966.75
2023-02-19T04:50:02.079Z,966.73
2023-02-19T04:52:02.058Z,966.59
2023-02-19T04:53:02.051Z,966.60
2023-02-19T04:54:02.039Z,966.54
2023-02-19T04:55:02.084Z,966.61
2023-02-19T04:56:02.029Z,966.61
2023-02-19T04:57:02.007Z,966.60
2023-02-19T04:58:02.026Z,966.63
2023-02-19T04:59:02.028Z,966.69
2023-02-19T05:00:02.017Z,966.70
2023-02-19T05:01:02.004Z,966.74
2023-02-19T05:02:04.960Z,966.74
2023-02-19T05:03:01.983Z,966.78
2023-02-19T05:04:01.980Z,966.68
2023-02-19T05:05:01.958Z,966.65
2023-02-19T05:06:01.952Z,966.61
2023-02-19T05:07:01.945Z,966.64
2023-02-19T05:08:01.900Z,966.70
2023-02-19T05:09:01.917Z,966.76
2023-02-19T05:10:01.914Z,966.79
2023-02-19T05:11:01.896Z,966.82
2023-02-19T05:12:01.880Z,966.85
2023-02-19T05:13:01.874Z,966.83
2023-02-19T05:14:01.863Z,966.82
2023-02-19T05:15:01.833Z,966.82
2023-02-19T05:16:01.873Z,966.85
2023-02-19T05:17:05.434Z,966.87
2023-02-19T05:18:01.848Z,966.82
2023-02-19T05:19:01.811Z,966.82
2023-02-19T05:20:01.800Z,966.84
2023-02-19T05:21:01.802Z,966.79
2023-02-19T05:22:01.807Z,966.81
2023-02-19T05:23:01.776Z,966.81
2023-02-19T05:24:01.755Z,966.86
2023-02-19T05:25:01.756Z,966.84
2023-02-19T05:26:01.717Z,966.85
2023-02-19T05:27:01.719Z,966.92
2023-02-19T05:28:01.717Z,966.90
2023-02-19T05:29:01.730Z,966.91
2023-02-19T05:30:01.798Z,966.95
2023-02-19T05:31:01.737Z,966.95
2023-02-19T05:32:04.671Z,966.92
2023-02-19T05:33:01.699Z,966.91
2023-02-19T05:34:01.657Z,966.90
2023-02-19T05:35:01.624Z,966.86
2023-02-19T05:36:01.628Z,966.86
2023-02-19T05:37:01.628Z,966.84
2023-02-19T05:38:01.614Z,966.89
2023-02-19T05:39:01.607Z,966.81
2023-02-19T05:40:01.600Z,966.83
2023-02-19T05:41:01.576Z,966.81
2023-02-19T05:42:01.616Z,966.89
2023-02-19T05:43:01.561Z,966.84
2023-02-19T05:44:01.553Z,966.81
2023-02-19T05:45:01.554Z,966.85
2023-02-19T05:46:01.552Z,966.80
2023-02-19T05:47:04.560Z,966.76
2023-02-19T05:48:01.495Z,966.82
2023-02-19T05:49:01.464Z,966.80
2023-02-19T05:50:01.490Z,966.78
2023-02-19T05:51:01.477Z,966.79
2023-02-19T05:52:01.480Z,966.79
2023-02-19T05:53:01.456Z,966.72
2023-02-19T05:54:01.440Z,966.78
2023-02-19T05:55:01.446Z,966.79
2023-02-19T05:56:01.398Z,966.78
2023-02-19T05:57:01.343Z,966.79
2023-02-19T05:58:01.328Z,966.79
2023-02-19T05:59:01.339Z,966.82
2023-02-19T06:00:01.380Z,966.86
2023-02-19T06:01:01.370Z,966.92
2023-02-19T06:02:04.349Z,966.98
2023-02-19T06:03:01.334Z,966.98
2023-02-19T06:04:01.310Z,967.02
2023-02-19T06:06:01.389Z,967.01
2023-02-19T06:07:01.240Z,967.02
2023-02-19T06:08:01.256Z,967.00
2023-02-19T06:09:01.216Z,967.07
2023-02-19T06:10:01.242Z,967.08
2023-02-19T06:11:01.202Z,967.12
2023-02-19T06:12:01.201Z,967.12
2023-02-19T06:13:01.168Z,967.17
2023-02-19T06:14:01.164Z,967.22
2023-02-19T06:15:01.178Z,967.27
2023-02-19T06:16:01.194Z,967.35
2023-02-19T06:17:04.153Z,967.40
2023-02-19T06:18:01.171Z,967.38
2023-02-19T06:19:01.350Z,967.41
2023-02-19T06:20:01.113Z,967.45
2023-02-19T06:21:01.134Z,967.48
2023-02-19T06:22:01.104Z,967.49
2023-02-19T06:23:01.064Z,967.52
2023-02-19T06:24:01.048Z,967.51
2023-02-19T06:25:01.068Z,967.48
2023-02-19T06:26:01.027Z,967.49
2023-02-19T06:27:01.055Z,967.46
2023-02-19T06:28:01.006Z,967.49
2023-02-19T06:29:01.017Z,967.52
2023-02-19T06:30:01.002Z,967.53
2023-02-19T06:31:01.183Z,967.55
2023-02-19T06:32:04.018Z,967.49
2023-02-19T06:33:00.976Z,967.47
2023-02-19T06:34:00.979Z,967.49
2023-02-19T06:35:00.965Z,967.51
2023-02-19T06:36:00.930Z,967.46
2023-02-19T06:37:00.966Z,967.50
2023-02-19T06:38:00.912Z,967.54
2023-02-19T06:39:00.914Z,967.64
2023-02-19T06:40:00.886Z,967.64
2023-02-19T06:41:00.943Z,967.68
2023-02-19T06:42:00.908Z,967.65
2023-02-19T06:43:00.862Z,967.68
2023-02-19T06:44:00.844Z,967.71
2023-02-19T06:45:00.877Z,967.65
2023-02-19T06:46:00.889Z,967.65
2023-02-19T06:47:03.816Z,967.69
2023-02-19T06:48:00.846Z,967.67
2023-02-19T06:49:00.831Z,967.72
2023-02-19T06:50:00.788Z,967.73
2023-02-19T06:51:00.780Z,967.69
2023-02-19T06:52:00.819Z,967.70
2023-02-19T06:53:00.757Z,967.66
2023-02-19T06:54:00.759Z,967.66
2023-02-19T06:55:00.758Z,967.71
2023-02-19T06:56:00.731Z,967.72
2023-02-19T06:57:00.801Z,967.73
2023-02-19T06:58:00.715Z,967.74
2023-02-19T06:59:00.750Z,967.73
2023-02-19T07:00:00.734Z,967.73
2023-02-19T07:01:00.700Z,967.78
2023-02-19T07:02:03.680Z,967.74
2023-02-19T07:03:00.701Z,967.82
2023-02-19T07:04:00.659Z,967.84
2023-02-19T07:05:00.730Z,967.88
2023-02-19T07:06:00.618Z,967.92
2023-02-19T07:07:00.906Z,967.98
2023-02-19T07:08:00.719Z,967.99
2023-02-19T07:09:00.606Z,967.95
2023-02-19T07:10:00.689Z,968.00
2023-02-19T07:11:00.622Z,967.98
2023-02-19T07:12:00.625Z,968.05
2023-02-19T07:13:00.656Z,968.05
2023-02-19T07:14:00.525Z,968.06
2023-02-19T07:15:00.550Z,968.08
2023-02-19T07:16:00.616Z,968.11
2023-02-19T07:17:03.500Z,968.11
2023-02-19T07:18:00.540Z,968.11
2023-02-19T07:19:00.518Z,968.11
2023-02-19T07:20:00.477Z,968.15
2023-02-19T07:21:00.493Z,968.18
2023-02-19T07:22:00.466Z,968.20
2023-02-19T07:23:00.461Z,968.18
2023-02-19T07:24:00.488Z,968.19
2023-02-19T07:25:00.417Z,968.19
2023-02-19T07:26:00.398Z,968.22
2023-02-19T07:27:00.422Z,968.25
2023-02-19T07:28:00.389Z,968.27
2023-02-19T07:29:00.397Z,968.34
2023-02-19T07:30:00.365Z,968.33
2023-02-19T07:31:00.390Z,968.36
2023-02-19T07:32:03.403Z,968.33
2023-02-19T07:33:00.363Z,968.35
2023-02-19T07:34:01.344Z,968.36
2023-02-19T07:35:00.339Z,968.39
2023-02-19T07:36:00.302Z,968.39
2023-02-19T07:37:00.306Z,968.46
2023-02-19T07:38:00.301Z,968.46
2023-02-19T07:39:00.278Z,968.49
2023-02-19T07:40:00.275Z,968.54
2023-02-19T07:41:00.252Z,968.56
2023-02-19T07:42:00.304Z,968.59
2023-02-19T07:43:00.260Z,968.58
2023-02-19T07:44:00.222Z,968.60
2023-02-19T07:45:00.703Z,968.60
2023-02-19T07:46:00.255Z,968.59
2023-02-19T07:47:03.254Z,968.63
2023-02-19T07:48:00.186Z,968.63
2023-02-19T07:49:00.168Z,968.63
2023-02-19T07:50:00.225Z,968.67
2023-02-19T07:51:00.147Z,968.66
2023-02-19T07:52:00.170Z,968.73
2023-02-19T07:53:00.145Z,968.75
2023-02-19T07:54:00.147Z,968.75
2023-02-19T07:55:00.144Z,968.76
2023-02-19T07:56:00.108Z,968.76
2023-02-19T07:57:00.144Z,968.82
2023-02-19T07:58:00.116Z,968.79
2023-02-19T07:59:00.099Z,968.75
2023-02-19T08:00:00.103Z,968.80
2023-02-19T08:01:00.084Z,968.82
2023-02-19T08:02:03.082Z,968.78
2023-02-19T08:03:00.187Z,968.82
2023-02-19T08:04:00.010Z,968.81
2023-02-19T08:05:00.032Z,968.83
2023-02-19T08:06:00.035Z,968.80
2023-02-19T08:06:59.978Z,968.79
2023-02-19T08:07:59.967Z,968.80
2023-02-19T08:08:59.960Z,968.85
2023-02-19T08:10:00.002Z,968.86
2023-02-19T08:10:59.979Z,968.85
2023-02-19T08:11:59.958Z,968.90
2023-02-19T08:12:59.981Z,968.92
2023-02-19T08:13:59.933Z,968.90
2023-02-19T08:14:59.913Z,968.91
2023-02-19T08:16:16.041Z,968.92
2023-02-19T08:17:03.939Z,968.92
2023-02-19T08:17:59.874Z,968.93
2023-02-19T08:18:59.895Z,968.96
2023-02-19T08:19:59.872Z,968.92
2023-02-19T08:20:59.873Z,968.98
2023-02-19T08:21:59.849Z,968.96
2023-02-19T08:22:59.842Z,968.97
2023-02-19T08:23:59.805Z,968.96
2023-02-19T08:25:59.783Z,968.97
2023-02-19T08:26:59.805Z,969.02
2023-02-19T08:27:59.825Z,969.01
2023-02-19T08:28:59.755Z,968.97
2023-02-19T08:29:59.848Z,969.00
2023-02-19T08:30:59.773Z,969.06
2023-02-19T08:32:02.881Z,969.02
2023-02-19T08:33:01.855Z,969.07
2023-02-19T08:33:59.737Z,969.06
2023-02-19T08:34:59.693Z,969.09
2023-02-19T08:35:59.683Z,969.10
2023-02-19T08:36:59.671Z,969.10
2023-02-19T08:37:59.671Z,969.10
2023-02-19T08:38:59.646Z,969.17
2023-02-19T08:39:59.667Z,969.23
2023-02-19T08:40:59.848Z,969.24
2023-02-19T08:41:59.618Z,969.25
2023-02-19T08:42:59.597Z,969.27
2023-02-19T08:43:59.620Z,969.27
2023-02-19T08:44:59.608Z,969.23
2023-02-19T08:45:59.612Z,969.20
2023-02-19T08:47:02.618Z,969.22
2023-02-19T08:47:59.566Z,969.23
2023-02-19T08:48:59.580Z,969.27
2023-02-19T08:49:59.567Z,969.28
2023-02-19T08:50:59.549Z,969.27
2023-02-19T08:51:59.548Z,969.25
2023-02-19T08:52:59.518Z,969.31
2023-02-19T08:53:59.497Z,969.24
2023-02-19T08:54:59.523Z,969.25
2023-02-19T08:55:59.491Z,969.26
2023-02-19T08:56:59.559Z,969.24
2023-02-19T08:57:59.452Z,969.25
2023-02-19T08:58:59.466Z,969.23
2023-02-19T08:59:59.425Z,969.26
2023-02-19T09:00:59.506Z,969.23
2023-02-19T09:02:02.403Z,969.23
2023-02-19T09:02:59.442Z,969.22
2023-02-19T09:03:59.432Z,969.23
2023-02-19T09:04:59.471Z,969.22
2023-02-19T09:05:59.389Z,969.26
2023-02-19T09:06:59.348Z,969.32
2023-02-19T09:07:59.351Z,969.24
2023-02-19T09:08:59.369Z,969.28
2023-02-19T09:09:59.337Z,969.39
2023-02-19T09:10:59.309Z,969.31
2023-02-19T09:11:59.433Z,969.28
2023-02-19T09:12:59.313Z,969.29
2023-02-19T09:13:59.283Z,969.30
2023-02-19T09:14:59.300Z,969.32
2023-02-19T09:15:59.338Z,969.30
2023-02-19T09:17:02.278Z,969.21
2023-02-19T09:17:59.264Z,969.34
2023-02-19T09:18:59.399Z,969.19
2023-02-19T09:19:59.247Z,969.18
2023-02-19T09:20:59.207Z,969.23
2023-02-19T09:21:59.200Z,969.23
2023-02-19T09:22:59.200Z,969.22
2023-02-19T09:23:59.334Z,969.20
2023-02-19T09:24:59.165Z,969.23
2023-02-19T09:25:59.365Z,969.23
2023-02-19T09:26:59.180Z,969.18
2023-02-19T09:28:00.424Z,969.20
2023-02-19T09:29:00.156Z,969.17
2023-02-19T09:29:59.330Z,969.18
2023-02-19T09:30:59.186Z,969.25
2023-02-19T09:32:02.232Z,969.22
2023-02-19T09:32:59.130Z,969.26
2023-02-19T09:33:59.148Z,969.29
2023-02-19T09:34:59.272Z,969.33
2023-02-19T09:35:59.077Z,969.28
2023-02-19T09:36:59.058Z,969.31
2023-02-19T09:37:59.058Z,969.28
2023-02-19T09:38:59.070Z,969.30
2023-02-19T09:39:59.058Z,969.30
2023-02-19T09:40:59.049Z,969.24
2023-02-19T09:42:01.639Z,969.26
2023-02-19T09:43:00.923Z,969.28
2023-02-19T09:43:59.001Z,969.27
2023-02-19T09:44:58.989Z,969.24
2023-02-19T09:45:58.955Z,969.26
2023-02-19T09:47:02.229Z,969.32
2023-02-19T09:47:58.954Z,969.26
2023-02-19T09:48:59.023Z,969.31
2023-02-19T09:49:58.938Z,969.32
2023-02-19T09:50:58.908Z,969.31
2023-02-19T09:51:58.986Z,969.35
2023-02-19T09:52:58.872Z,969.33
2023-02-19T09:53:58.876Z,969.35
2023-02-19T09:54:58.855Z,969.36
2023-02-19T09:55:58.842Z,969.38
2023-02-19T09:56:58.869Z,969.35
2023-02-19T09:58:58.830Z,969.40
2023-02-19T09:59:58.802Z,969.43
2023-02-19T10:00:58.795Z,969.35
2023-02-19T10:02:01.806Z,969.37
2023-02-19T10:02:58.784Z,969.41
2023-02-19T10:03:59.067Z,969.43
2023-02-19T10:04:58.783Z,969.41
2023-02-19T10:05:58.752Z,969.46
2023-02-19T10:06:58.723Z,969.52
2023-02-19T10:07:58.741Z,969.45
2023-02-19T10:08:58.721Z,969.47
2023-02-19T10:09:58.722Z,969.49
2023-02-19T10:10:59.666Z,969.45
2023-02-19T10:11:58.669Z,969.42
2023-02-19T10:12:58.693Z,969.44
2023-02-19T10:13:58.674Z,969.45
2023-02-19T10:14:58.678Z,969.47
2023-02-19T10:15:58.687Z,969.45
2023-02-19T10:17:01.682Z,969.44
2023-02-19T10:17:58.659Z,969.44
2023-02-19T10:18:58.625Z,969.43
2023-02-19T10:19:58.615Z,969.46
2023-02-19T10:20:58.588Z,969.47
2023-02-19T10:21:58.564Z,969.47
2023-02-19T10:22:58.574Z,969.43
2023-02-19T10:23:58.586Z,969.41
2023-02-19T10:24:58.599Z,969.38
2023-02-19T10:25:58.556Z,969.41
2023-02-19T10:26:58.539Z,969.45
2023-02-19T10:27:58.500Z,969.42
2023-02-19T10:28:58.510Z,969.46
2023-02-19T10:29:58.568Z,969.46
2023-02-19T10:30:58.528Z,969.49
2023-02-19T10:32:01.549Z,969.45
2023-02-19T10:32:58.508Z,969.41
2023-02-19T10:34:58.529Z,969.43
2023-02-19T10:35:58.495Z,969.47
2023-02-19T10:36:58.429Z,969.44
2023-02-19T10:37:58.465Z,969.41
2023-02-19T10:38:58.415Z,969.41
2023-02-19T10:39:58.439Z,969.34
2023-02-19T10:40:58.472Z,969.34
2023-02-19T10:41:58.546Z,969.32
2023-02-19T10:42:58.450Z,969.37
2023-02-19T10:43:58.462Z,969.42
2023-02-19T10:44:58.516Z,969.36
2023-02-19T10:45:58.368Z,969.43
2023-02-19T10:47:01.305Z,969.41
2023-02-19T10:47:58.394Z,969.38
2023-02-19T10:48:58.325Z,969.38
2023-02-19T10:49:58.273Z,969.40
2023-02-19T10:50:58.285Z,969.40
2023-02-19T10:51:58.283Z,969.42
2023-02-19T10:52:58.264Z,969.44
2023-02-19T10:53:58.256Z,969.52
2023-02-19T10:54:58.245Z,969.45
2023-02-19T10:55:58.236Z,969.44
2023-02-19T10:56:58.227Z,969.48
2023-02-19T10:57:58.220Z,969.52
2023-02-19T10:58:58.166Z,969.55
2023-02-19T10:59:58.163Z,969.49
2023-02-19T11:00:58.157Z,969.51
2023-02-19T11:02:01.285Z,969.52
2023-02-19T11:02:58.246Z,969.49
2023-02-19T11:03:58.115Z,969.52
2023-02-19T11:04:58.109Z,969.46
2023-02-19T11:05:58.094Z,969.48
2023-02-19T11:06:58.118Z,969.40
2023-02-19T11:07:58.306Z,969.42
2023-02-19T11:08:58.090Z,969.45
2023-02-19T11:09:58.061Z,969.49
2023-02-19T11:10:58.056Z,969.46
2023-02-19T11:11:58.081Z,969.48
2023-02-19T11:12:58.069Z,969.47
2023-02-19T11:13:58.038Z,969.53
2023-02-19T11:14:58.010Z,969.47
2023-02-19T11:15:58.025Z,969.51
2023-02-19T11:17:00.982Z,969.56
2023-02-19T11:17:58.018Z,969.51
2023-02-19T11:18:57.960Z,969.50
2023-02-19T11:19:57.942Z,969.52
2023-02-19T11:20:57.966Z,969.40
2023-02-19T11:21:57.959Z,969.47
2023-02-19T11:22:57.942Z,969.46
2023-02-19T11:23:57.933Z,969.48
2023-02-19T11:24:59.526Z,969.40
2023-02-19T11:25:57.900Z,969.38
2023-02-19T11:26:57.901Z,969.37
2023-02-19T11:27:57.878Z,969.36
2023-02-19T11:28:57.898Z,969.32
2023-02-19T11:29:57.878Z,969.33
2023-02-19T11:30:57.901Z,969.30
2023-02-19T11:32:00.981Z,969.28
2023-02-19T11:32:57.844Z,969.25
2023-02-19T11:33:57.819Z,969.18
2023-02-19T11:34:57.793Z,969.23
2023-02-19T11:35:58.739Z,969.23
2023-02-19T11:36:57.997Z,969.26
2023-02-19T11:37:57.789Z,969.30
2023-02-19T11:38:57.754Z,969.33
2023-02-19T11:39:57.767Z,969.35
2023-02-19T11:40:57.731Z,969.33
2023-02-19T11:41:57.713Z,969.37
2023-02-19T11:42:57.722Z,969.35
2023-02-19T11:43:57.689Z,969.40
2023-02-19T11:44:57.693Z,969.42
2023-02-19T11:45:57.704Z,969.42
2023-02-19T11:47:00.704Z,969.43
2023-02-19T11:47:57.705Z,969.41
2023-02-19T11:48:57.660Z,969.41
2023-02-19T11:49:57.664Z,969.38
2023-02-19T11:50:57.655Z,969.41
2023-02-19T11:51:57.672Z,969.39
2023-02-19T11:52:57.635Z,969.39
2023-02-19T11:53:57.618Z,969.38
2023-02-19T11:54:57.581Z,969.37
2023-02-19T11:55:57.592Z,969.37
2023-02-19T11:56:57.555Z,969.36
2023-02-19T11:57:57.644Z,969.34
2023-02-19T11:59:00.667Z,969.31
2023-02-19T11:59:57.576Z,969.29
2023-02-19T12:00:57.528Z,969.28
2023-02-19T12:02:00.597Z,969.30
2023-02-19T12:02:57.602Z,969.26
2023-02-19T12:03:57.482Z,969.28
2023-02-19T12:04:57.547Z,969.30
2023-02-19T12:05:57.486Z,969.26
2023-02-19T12:06:57.484Z,969.29
2023-02-19T12:07:57.465Z,969.25
2023-02-19T12:08:57.434Z,969.28
2023-02-19T12:09:57.421Z,969.27
2023-02-19T12:10:57.437Z,969.22
2023-02-19T12:11:57.400Z,969.18
2023-02-19T12:12:57.394Z,969.28
2023-02-19T12:13:57.430Z,969.26
2023-02-19T12:14:57.383Z,969.17
2023-02-19T12:15:57.394Z,969.18
2023-02-19T12:17:00.353Z,969.15
2023-02-19T12:17:57.378Z,969.13
2023-02-19T12:18:57.370Z,969.09
2023-02-19T12:19:57.307Z,969.08
2023-02-19T12:20:57.306Z,969.09
2023-02-19T12:21:57.316Z,969.07
2023-02-19T12:22:57.269Z,969.03
2023-02-19T12:23:57.274Z,969.05
2023-02-19T12:24:57.289Z,969.08
2023-02-19T12:25:57.275Z,969.03
2023-02-19T12:26:57.268Z,969.03
2023-02-19T12:27:57.267Z,969.01
2023-02-19T12:28:57.245Z,968.99
2023-02-19T12:29:57.340Z,969.01
2023-02-19T12:30:57.209Z,968.99
2023-02-19T12:32:00.340Z,969.01
2023-02-19T12:32:57.185Z,969.00
2023-02-19T12:33:57.189Z,969.06
2023-02-19T12:34:57.149Z,969.03
2023-02-19T12:35:57.139Z,969.01